createdAt,value
2023-01-15T00:02:18.463Z,21.37
2023-01-15T00:04:46.326Z,21.36
2023-01-15T00:07:14.037Z,21.35
2023-01-15T00:09:41.849Z,21.33
2023-01-15T00:12:09.599Z,21.33
2023-01-15T00:14:37.339Z,21.33
2023-01-15T00:17:05.106Z,21.31
2023-01-15T00:19:32.936Z,21.32
2023-01-15T00:22:09.619Z,21.31
2023-01-15T00:25:06.503Z,21.30
2023-01-15T00:27:40.141Z,21.27
2023-01-15T00:30:08.069Z,21.27
2023-01-15T00:32:35.810Z,21.28
2023-01-15T00:35:03.608Z,21.26
2023-01-15T00:37:31.359Z,21.25
2023-01-15T00:39:59.137Z,21.25
2023-01-15T00:42:26.970Z,21.25
2023-01-15T00:44:55.695Z,21.26
2023-01-15T00:47:23.519Z,21.23
2023-01-15T00:49:51.731Z,21.23
2023-01-15T00:52:19.608Z,21.25
2023-01-15T00:54:48.331Z,21.22
2023-01-15T00:57:16.141Z,21.23
2023-01-15T00:59:43.878Z,21.23
2023-01-15T01:02:11.775Z,21.23
2023-01-15T01:04:39.556Z,21.23
2023-01-15T01:07:07.300Z,21.23
2023-01-15T01:09:35.174Z,21.22
2023-01-15T01:12:02.874Z,21.21
2023-01-15T01:14:30.655Z,21.20
2023-01-15T01:16:58.342Z,21.20
2023-01-15T01:19:26.129Z,21.22
2023-01-15T01:21:53.940Z,21.21
2023-01-15T01:24:21.661Z,21.19
2023-01-15T01:26:49.398Z,21.18
2023-01-15T01:29:17.199Z,21.18
2023-01-15T01:31:45.093Z,21.17
2023-01-15T01:34:12.874Z,21.17
2023-01-15T01:36:40.749Z,21.16
2023-01-15T01:39:08.617Z,21.15
2023-01-15T01:41:36.379Z,21.13
2023-01-15T01:44:04.117Z,21.12
2023-01-15T01:46:31.900Z,21.12
2023-01-15T01:48:59.632Z,21.11
2023-01-15T01:51:27.395Z,21.11
2023-01-15T01:53:55.183Z,21.10
2023-01-15T01:56:23.344Z,21.11
2023-01-15T01:58:51.067Z,21.11
2023-01-15T02:39:10.882Z,21.00
2023-01-15T02:41:38.613Z,21.01
2023-01-15T02:44:06.341Z,21.01
2023-01-15T02:46:34.130Z,21.02
2023-01-15T02:49:01.889Z,21.02
2023-01-15T02:51:29.601Z,21.01
2023-01-15T02:53:58.696Z,21.00
2023-01-15T02:56:26.441Z,21.02
2023-01-15T02:58:54.272Z,21.01
2023-01-15T03:01:22.175Z,21.01
2023-01-15T03:03:49.996Z,21.01
2023-01-15T03:06:17.749Z,21.00
2023-01-15T03:08:45.533Z,21.01
2023-01-15T03:11:13.282Z,21.01
2023-01-15T03:13:41.035Z,21.02
2023-01-15T03:16:26.217Z,21.00
2023-01-15T03:18:54.059Z,21.00
2023-01-15T03:21:21.832Z,20.98
2023-01-15T03:23:49.588Z,20.97
2023-01-15T03:26:17.407Z,20.97
2023-01-15T03:28:45.152Z,20.98
2023-01-15T03:31:13.018Z,20.98
2023-01-15T03:33:40.861Z,20.97
2023-01-15T03:36:08.600Z,20.98
2023-01-15T03:38:36.859Z,20.96
2023-01-15T03:41:04.600Z,20.96
2023-01-15T03:43:44.568Z,20.96
2023-01-15T03:46:12.331Z,20.95
2023-01-15T03:48:40.160Z,20.95
2023-01-15T03:51:07.952Z,20.94
2023-01-15T03:53:35.663Z,20.93
2023-01-15T03:56:03.421Z,20.94
2023-01-15T03:58:31.182Z,20.93
2023-01-15T04:00:59.877Z,20.93
2023-01-15T04:03:27.752Z,20.95
2023-01-15T04:05:55.493Z,20.95
2023-01-15T04:08:23.257Z,20.94
2023-01-15T04:10:50.992Z,20.94
2023-01-15T04:13:18.886Z,20.94
2023-01-15T04:15:46.814Z,20.94
2023-01-15T04:18:14.591Z,20.93
2023-01-15T04:20:42.324Z,20.94
2023-01-15T04:23:10.064Z,20.95
2023-01-15T04:25:38.094Z,20.94
2023-01-15T04:28:06.029Z,20.94
2023-01-15T04:30:33.826Z,20.95
2023-01-15T04:33:01.596Z,20.96
2023-01-15T04:35:29.339Z,20.97
2023-01-15T04:37:57.096Z,20.98
2023-01-15T04:40:42.487Z,20.97
2023-01-15T04:43:27.612Z,20.95
2023-01-15T04:45:55.402Z,20.97
2023-01-15T04:48:23.155Z,20.97
2023-01-15T04:50:51.041Z,20.98
2023-01-15T04:53:18.799Z,21.00
2023-01-15T04:55:46.548Z,21.01
2023-01-15T04:58:14.290Z,21.00
2023-01-15T05:00:42.031Z,21.01
2023-01-15T05:03:09.777Z,21.02
2023-01-15T05:05:37.939Z,21.01
2023-01-15T05:08:05.647Z,21.01
2023-01-15T05:10:33.950Z,20.98
2023-01-15T05:13:02.131Z,20.98
2023-01-15T05:15:30.028Z,20.99
2023-01-15T05:17:57.786Z,21.01
2023-01-15T05:20:25.834Z,21.00
2023-01-15T05:22:53.541Z,21.00
2023-01-15T05:25:21.240Z,20.98
2023-01-15T05:27:48.922Z,20.97
2023-01-15T05:30:16.694Z,20.96
2023-01-15T05:32:44.909Z,20.95
2023-01-15T05:35:12.697Z,20.93
2023-01-15T05:37:40.422Z,20.94
2023-01-15T05:40:08.209Z,20.93
2023-01-15T05:42:35.962Z,20.92
2023-01-15T05:45:03.813Z,20.92
2023-01-15T05:47:31.569Z,20.92
2023-01-15T05:49:59.334Z,21.01
2023-01-15T05:52:27.082Z,21.30
2023-01-15T05:54:54.830Z,21.55
2023-01-15T05:57:22.597Z,21.77
2023-01-15T05:59:50.586Z,21.93
2023-01-15T06:02:18.391Z,22.05
2023-01-15T06:04:46.273Z,22.10
2023-01-15T06:07:14.038Z,22.15
2023-01-15T06:09:41.840Z,22.16
2023-01-15T06:12:09.764Z,22.17
2023-01-15T06:14:37.553Z,22.15
2023-01-15T06:17:05.274Z,22.36
2023-01-15T06:19:33.441Z,26.18
2023-01-15T06:22:01.164Z,31.27
2023-01-15T06:24:29.285Z,34.64
2023-01-15T06:26:56.986Z,36.71
2023-01-15T06:29:24.866Z,38.02
2023-01-15T06:31:52.591Z,38.89
2023-01-15T06:34:20.516Z,39.60
2023-01-15T06:36:48.324Z,40.14
2023-01-15T06:39:16.519Z,40.51
2023-01-15T06:42:01.602Z,40.66
2023-01-15T06:44:46.702Z,40.56
2023-01-15T06:47:24.625Z,40.15
2023-01-15T06:49:52.705Z,39.38
2023-01-15T06:52:20.448Z,38.59
2023-01-15T06:54:48.167Z,37.63
2023-01-15T06:57:15.901Z,36.73
2023-01-15T06:59:43.631Z,35.85
2023-01-15T07:02:11.532Z,34.84
2023-01-15T07:04:39.288Z,33.97
2023-01-15T07:07:19.097Z,33.18
2023-01-15T07:09:46.863Z,32.39
2023-01-15T07:12:14.724Z,31.67
2023-01-15T07:14:42.484Z,31.02
2023-01-15T07:17:10.558Z,30.37
2023-01-15T07:19:38.340Z,29.78
2023-01-15T07:22:06.188Z,29.22
2023-01-15T07:24:34.001Z,28.69
2023-01-15T07:27:01.785Z,28.29
2023-01-15T07:29:30.873Z,27.83
2023-01-15T07:31:59.466Z,27.41
2023-01-15T07:34:27.299Z,27.02
2023-01-15T07:36:55.034Z,26.68
2023-01-15T07:39:22.824Z,26.34
2023-01-15T07:42:07.937Z,26.04
2023-01-15T07:44:53.388Z,25.72
2023-01-15T07:47:38.483Z,25.41
2023-01-15T07:50:06.272Z,25.14
2023-01-15T07:52:34.009Z,24.92
2023-01-15T07:55:02.138Z,24.71
2023-01-15T07:57:29.913Z,24.53
2023-01-15T07:59:57.646Z,24.36
2023-01-15T08:02:25.657Z,24.23
2023-01-15T08:04:53.465Z,24.39
2023-01-15T08:07:21.216Z,24.46
2023-01-15T08:09:48.938Z,24.45
2023-01-15T08:12:34.401Z,24.42
2023-01-15T08:15:14.157Z,24.30
2023-01-15T08:17:41.915Z,24.15
2023-01-15T08:20:09.756Z,24.26
2023-01-15T08:22:38.598Z,25.32
2023-01-15T08:25:06.345Z,28.36
2023-01-15T08:27:34.299Z,31.82
2023-01-15T08:30:02.229Z,34.17
2023-01-15T08:32:30.026Z,35.66
2023-01-15T08:34:57.871Z,36.65
2023-01-15T08:37:25.582Z,37.30
2023-01-15T08:39:53.676Z,37.46
2023-01-15T08:42:21.401Z,37.11
2023-01-15T08:44:49.186Z,36.59
2023-01-15T08:47:16.947Z,35.91
2023-01-15T08:49:44.712Z,35.15
2023-01-15T08:52:15.178Z,34.29
2023-01-15T08:54:43.423Z,33.52
2023-01-15T08:57:12.611Z,32.79
2023-01-15T08:59:43.060Z,32.02
2023-01-15T09:02:10.896Z,31.35
2023-01-15T09:04:38.700Z,30.72
2023-01-15T09:07:06.505Z,30.10
2023-01-15T09:09:36.995Z,29.50
2023-01-15T09:12:04.725Z,28.97
2023-01-15T09:14:58.127Z,28.46
2023-01-15T09:17:20.263Z,27.96
2023-01-15T09:19:47.964Z,27.54
2023-01-15T09:22:15.882Z,27.19
2023-01-15T09:24:43.627Z,26.83
2023-01-15T09:27:13.440Z,26.48
2023-01-15T09:29:41.164Z,26.13
2023-01-15T09:32:10.473Z,25.88
2023-01-15T09:34:38.232Z,25.60
2023-01-15T09:37:08.249Z,25.37
2023-01-15T09:39:38.126Z,25.11
2023-01-15T09:42:09.385Z,24.93
2023-01-15T09:44:37.293Z,24.72
2023-01-15T09:47:08.071Z,24.55
2023-01-15T09:49:36.213Z,24.36
2023-01-15T09:52:06.375Z,24.21
2023-01-15T09:54:34.149Z,24.06
2023-01-15T09:57:02.054Z,23.93
2023-01-15T09:59:34.158Z,23.78
2023-01-15T10:02:02.567Z,23.69
2023-01-15T10:04:30.367Z,23.61
2023-01-15T10:06:58.723Z,23.76
2023-01-15T10:09:26.900Z,23.80
2023-01-15T10:12:12.325Z,23.77
2023-01-15T10:14:40.433Z,23.67
2023-01-15T10:17:08.147Z,23.63
2023-01-15T10:19:44.313Z,23.55
2023-01-15T10:22:12.443Z,23.47
2023-01-15T10:24:40.212Z,23.36
2023-01-15T10:27:07.992Z,23.29
2023-01-15T10:29:35.705Z,23.25
2023-01-15T10:32:03.441Z,23.15
2023-01-15T10:34:33.227Z,23.04
2023-01-15T10:37:00.920Z,22.94
2023-01-15T10:39:28.764Z,22.87
2023-01-15T10:41:56.543Z,22.80
2023-01-15T10:44:24.318Z,22.72
2023-01-15T10:46:54.395Z,22.67
2023-01-15T10:49:22.631Z,22.61
2023-01-15T10:51:52.695Z,22.55
2023-01-15T10:54:20.420Z,22.48
2023-01-15T10:56:48.152Z,22.44
2023-01-15T10:59:15.947Z,22.40
2023-01-15T11:01:43.876Z,22.37
2023-01-15T11:04:13.345Z,22.34
2023-01-15T11:06:41.104Z,22.28
2023-01-15T11:09:12.400Z,22.26
2023-01-15T11:12:15.717Z,22.21
2023-01-15T11:15:00.716Z,22.17
2023-01-15T11:17:45.785Z,22.13
2023-01-15T11:20:13.564Z,22.10
2023-01-15T11:22:42.698Z,22.09
2023-01-15T11:25:11.456Z,22.06
2023-01-15T11:27:39.245Z,22.03
2023-01-15T11:30:06.951Z,22.02
2023-01-15T11:32:34.740Z,22.00
2023-01-15T11:35:02.485Z,21.98
2023-01-15T11:37:30.315Z,21.96
2023-01-15T11:40:03.060Z,21.94
2023-01-15T11:42:48.468Z,21.91
2023-01-15T11:45:30.042Z,21.88
2023-01-15T11:48:15.184Z,21.86
2023-01-15T11:50:45.702Z,21.84
2023-01-15T11:53:14.853Z,21.82
2023-01-15T11:55:42.551Z,21.81
2023-01-15T11:58:10.401Z,21.79
2023-01-15T12:00:38.156Z,21.78
2023-01-15T12:03:05.914Z,21.77
2023-01-15T12:05:33.700Z,21.75
2023-01-15T12:08:02.315Z,21.75
2023-01-15T12:10:49.959Z,21.72
2023-01-15T12:13:17.784Z,21.70
2023-01-15T12:15:45.567Z,21.68
2023-01-15T12:18:13.551Z,21.68
2023-01-15T12:20:43.996Z,21.68
2023-01-15T12:23:11.707Z,21.66
2023-01-15T12:25:39.570Z,21.66
2023-01-15T12:28:08.864Z,21.63
2023-01-15T12:30:37.800Z,21.62
2023-01-15T12:33:05.772Z,21.57
2023-01-15T12:35:33.548Z,21.53
2023-01-15T12:38:01.287Z,21.54
2023-01-15T12:40:29.015Z,21.52
2023-01-15T12:43:14.462Z,21.50
2023-01-15T12:45:42.477Z,22.75
2023-01-15T12:48:10.194Z,28.25
2023-01-15T12:50:37.960Z,33.06
2023-01-15T12:53:05.709Z,36.20
2023-01-15T12:55:33.749Z,38.05
2023-01-15T12:58:01.501Z,39.37
2023-01-15T13:00:29.253Z,40.21
2023-01-15T13:02:57.005Z,40.85
2023-01-15T13:05:24.759Z,41.31
2023-01-15T13:07:52.521Z,41.61
2023-01-15T13:10:20.218Z,41.66
2023-01-15T13:12:47.950Z,41.41
2023-01-15T13:15:15.685Z,41.02
2023-01-15T13:17:44.646Z,40.35
2023-01-15T13:20:12.391Z,39.42
2023-01-15T13:22:40.157Z,38.47
2023-01-15T13:25:07.965Z,37.54
2023-01-15T13:27:35.692Z,36.56
2023-01-15T13:30:03.711Z,35.65
2023-01-15T13:32:31.454Z,34.71
2023-01-15T13:34:59.221Z,33.82
2023-01-15T13:37:27.026Z,33.03
2023-01-15T13:39:54.774Z,32.30
2023-01-15T13:42:39.213Z,31.58
2023-01-15T13:45:07.014Z,30.91
2023-01-15T13:47:34.863Z,30.27
2023-01-15T13:50:03.584Z,29.73
2023-01-15T13:52:31.353Z,29.19
2023-01-15T13:54:59.572Z,28.69
2023-01-15T13:57:27.321Z,28.27
2023-01-15T13:59:55.037Z,27.80
2023-01-15T14:02:22.875Z,27.40
2023-01-15T14:04:50.623Z,27.04
2023-01-15T14:07:18.381Z,26.70
2023-01-15T14:09:46.124Z,26.39
2023-01-15T14:12:13.993Z,26.09
2023-01-15T14:14:41.733Z,25.80
2023-01-15T14:17:09.474Z,25.55
2023-01-15T14:19:37.227Z,25.30
2023-01-15T14:22:05.163Z,25.10
2023-01-15T14:24:32.912Z,24.90
2023-01-15T14:27:00.716Z,24.72
2023-01-15T14:29:30.551Z,24.55
2023-01-15T14:31:58.317Z,24.61
2023-01-15T14:34:27.141Z,24.65
2023-01-15T14:36:56.345Z,24.59
2023-01-15T14:39:24.094Z,25.04
2023-01-15T14:42:05.730Z,26.47
2023-01-15T14:44:33.599Z,28.11
2023-01-15T14:47:01.322Z,29.66
2023-01-15T14:49:29.294Z,31.18
2023-01-15T14:51:57.192Z,32.48
2023-01-15T14:54:25.107Z,33.31
2023-01-15T14:56:52.817Z,33.38
2023-01-15T14:59:20.525Z,33.02
2023-01-15T15:01:48.772Z,32.45
2023-01-15T15:04:16.552Z,31.79
2023-01-15T15:06:44.352Z,31.11
2023-01-15T15:09:13.656Z,30.47
2023-01-15T15:11:59.051Z,29.80
2023-01-15T15:14:26.843Z,29.14
2023-01-15T15:16:54.871Z,28.59
2023-01-15T15:19:25.223Z,28.12
2023-01-15T15:21:52.992Z,27.63
2023-01-15T15:24:20.740Z,27.20
2023-01-15T15:26:48.470Z,26.81
2023-01-15T15:29:16.225Z,26.43
2023-01-15T15:31:43.979Z,26.09
2023-01-15T15:34:11.687Z,25.79
2023-01-15T15:36:39.807Z,25.49
2023-01-15T15:39:07.554Z,25.24
2023-01-15T15:41:52.909Z,24.98
2023-01-15T15:44:38.056Z,24.71
2023-01-15T15:47:23.158Z,24.45
2023-01-15T15:49:50.956Z,24.25
2023-01-15T15:52:18.723Z,24.08
2023-01-15T15:54:46.570Z,24.05
2023-01-15T15:57:14.318Z,24.25
2023-01-15T15:59:42.126Z,24.45
2023-01-15T16:02:10.063Z,24.53
2023-01-15T16:04:37.888Z,24.51
2023-01-15T16:07:05.596Z,24.41
2023-01-15T16:09:33.416Z,24.28
2023-01-15T16:12:07.347Z,24.15
2023-01-15T16:14:35.229Z,23.99
2023-01-15T16:17:03.146Z,23.87
2023-01-15T16:19:31.035Z,23.74
2023-01-15T16:21:58.930Z,23.91
2023-01-15T16:24:26.762Z,24.06
2023-01-15T16:26:54.535Z,24.07
2023-01-15T16:29:23.333Z,24.00
2023-01-15T16:31:51.074Z,23.91
2023-01-15T16:34:18.930Z,23.83
2023-01-15T16:36:47.156Z,23.70
2023-01-15T16:39:14.935Z,23.56
2023-01-15T16:41:43.341Z,23.48
2023-01-15T16:44:11.132Z,23.35
2023-01-15T16:46:39.022Z,23.37
2023-01-15T16:49:07.393Z,24.75
2023-01-15T16:51:35.240Z,27.45
2023-01-15T16:54:03.677Z,29.87
2023-01-15T16:56:31.424Z,31.75
2023-01-15T16:58:59.172Z,33.38
2023-01-15T17:01:27.006Z,34.78
2023-01-15T17:03:54.787Z,35.61
2023-01-15T17:06:22.542Z,36.01
2023-01-15T17:08:50.245Z,35.88
2023-01-15T17:11:17.982Z,35.45
2023-01-15T17:13:45.849Z,34.83
2023-01-15T17:16:13.681Z,34.15
2023-01-15T17:18:41.667Z,33.39
2023-01-15T17:21:09.502Z,32.66
2023-01-15T17:23:37.329Z,31.93
2023-01-15T17:26:05.048Z,31.24
2023-01-15T17:28:32.791Z,30.60
2023-01-15T17:31:00.571Z,29.98
2023-01-15T17:33:28.394Z,29.42
2023-01-15T17:35:58.392Z,28.87
2023-01-15T17:38:26.094Z,28.41
2023-01-15T17:40:57.604Z,27.97
2023-01-15T17:43:26.462Z,27.52
2023-01-15T17:45:54.237Z,27.11
2023-01-15T17:48:21.964Z,26.74
2023-01-15T17:50:49.734Z,26.42
2023-01-15T17:53:17.977Z,26.11
2023-01-15T17:56:03.464Z,25.83
2023-01-15T17:58:48.626Z,25.54
2023-01-15T18:01:34.055Z,25.25
2023-01-15T18:04:19.389Z,24.99
2023-01-15T18:06:47.185Z,24.77
2023-01-15T18:09:14.918Z,24.61
2023-01-15T18:11:42.858Z,24.42
2023-01-15T18:14:10.610Z,24.27
2023-01-15T18:16:39.102Z,24.14
2023-01-15T18:19:06.843Z,24.00
2023-01-15T18:21:34.589Z,23.86
2023-01-15T18:24:02.665Z,23.74
2023-01-15T18:26:30.390Z,23.63
2023-01-15T18:28:58.121Z,23.55
2023-01-15T18:31:25.956Z,23.50
2023-01-15T18:33:53.690Z,23.61
2023-01-15T18:36:21.589Z,23.65
2023-01-15T18:38:49.357Z,23.64
2023-01-15T18:41:49.731Z,23.62
2023-01-15T18:44:35.040Z,23.58
2023-01-15T18:47:02.862Z,23.50
2023-01-15T18:49:30.618Z,23.43
2023-01-15T18:52:16.049Z,23.35
2023-01-15T18:54:43.831Z,23.27
2023-01-15T18:57:11.701Z,23.22
2023-01-15T18:59:39.494Z,24.11
2023-01-15T19:02:09.776Z,26.23
2023-01-15T19:04:38.308Z,28.67
2023-01-15T19:07:06.110Z,31.55
2023-01-15T19:09:34.198Z,33.72
2023-01-15T19:12:03.992Z,34.97
2023-01-15T19:14:49.379Z,35.66
2023-01-15T19:17:34.535Z,35.95
2023-01-15T19:20:02.281Z,35.74
2023-01-15T19:22:47.630Z,35.32
2023-01-15T19:25:15.357Z,34.79
2023-01-15T19:27:43.217Z,34.23
2023-01-15T19:30:10.943Z,33.57
2023-01-15T19:32:38.660Z,32.92
2023-01-15T19:35:06.417Z,32.23
2023-01-15T19:37:37.221Z,31.58
2023-01-15T19:40:05.206Z,30.95
2023-01-15T19:42:50.596Z,30.31
2023-01-15T19:45:36.080Z,29.65
2023-01-15T19:48:21.087Z,29.05
2023-01-15T19:50:48.827Z,28.51
2023-01-15T19:53:16.685Z,28.09
2023-01-15T19:55:44.573Z,27.64
2023-01-15T19:58:12.294Z,27.27
2023-01-15T20:00:40.229Z,26.92
2023-01-15T20:03:09.911Z,26.59
2023-01-15T20:05:37.751Z,26.28
2023-01-15T20:08:05.675Z,25.97
2023-01-15T20:10:34.396Z,25.70
2023-01-15T20:13:19.546Z,25.45
2023-01-15T20:15:47.288Z,25.18
2023-01-15T20:18:15.177Z,24.97
2023-01-15T20:20:42.928Z,24.76
2023-01-15T20:23:10.667Z,24.58
2023-01-15T20:25:42.705Z,24.40
2023-01-15T20:28:10.506Z,24.24
2023-01-15T20:30:38.395Z,24.08
2023-01-15T20:33:06.120Z,23.93
2023-01-15T20:35:33.944Z,23.79
2023-01-15T20:38:01.720Z,23.68
2023-01-15T20:40:32.564Z,23.77
2023-01-15T20:43:17.849Z,23.92
2023-01-15T20:45:46.041Z,23.92
2023-01-15T20:48:31.105Z,23.91
2023-01-15T20:51:01.741Z,23.83
2023-01-15T20:53:29.743Z,23.73
2023-01-15T20:55:57.891Z,23.65
2023-01-15T20:58:25.871Z,23.57
2023-01-15T21:00:53.820Z,23.48
2023-01-15T21:03:21.593Z,23.37
2023-01-15T21:05:49.387Z,23.32
2023-01-15T21:08:17.091Z,23.24
2023-01-15T21:10:44.856Z,23.16
2023-01-15T21:13:13.036Z,23.08
2023-01-15T21:15:42.390Z,23.02
2023-01-15T21:18:11.727Z,22.98
2023-01-15T21:20:39.473Z,22.91
2023-01-15T21:23:07.347Z,22.83
2023-01-15T21:25:35.075Z,22.74
2023-01-15T21:28:02.877Z,22.67
2023-01-15T21:30:30.770Z,22.62
2023-01-15T21:32:58.475Z,22.56
2023-01-15T21:35:26.185Z,22.49
2023-01-15T21:37:53.923Z,22.45
2023-01-15T21:40:21.703Z,22.41
2023-01-15T21:43:07.308Z,22.39
2023-01-15T21:45:35.084Z,22.34
2023-01-15T21:48:02.971Z,22.31
2023-01-15T21:50:30.850Z,22.28
2023-01-15T21:52:58.572Z,22.23
2023-01-15T21:55:26.375Z,22.22
2023-01-15T21:57:54.126Z,22.21
2023-01-15T22:00:21.972Z,22.18
2023-01-15T22:02:50.201Z,22.16
2023-01-15T22:05:17.989Z,22.13
2023-01-15T22:07:45.746Z,22.09
2023-01-15T22:10:13.476Z,22.08
2023-01-15T22:12:43.178Z,22.05
2023-01-15T22:15:10.979Z,22.03
2023-01-15T22:17:38.768Z,22.00
2023-01-15T22:20:07.325Z,21.98
2023-01-15T22:22:36.792Z,21.96
2023-01-15T22:25:07.599Z,21.94
2023-01-15T22:27:40.687Z,21.92
2023-01-15T22:30:08.475Z,21.91
2023-01-15T22:32:36.275Z,21.91
2023-01-15T22:35:04.194Z,21.88
2023-01-15T22:37:31.970Z,21.84
2023-01-15T22:39:59.832Z,21.83
2023-01-15T22:42:28.510Z,21.82
2023-01-15T22:44:57.225Z,21.81
2023-01-15T22:49:52.945Z,21.78
2023-01-15T22:52:21.266Z,21.79
2023-01-15T22:54:49.002Z,21.77
2023-01-15T22:57:17.301Z,21.76
2023-01-15T22:59:45.341Z,21.76
2023-01-15T23:02:13.277Z,21.75
2023-01-15T23:04:41.085Z,21.72
2023-01-15T23:07:08.858Z,21.70
2023-01-15T23:09:36.600Z,21.69
2023-01-15T23:12:04.349Z,21.67
2023-01-15T23:14:32.128Z,21.66
2023-01-15T23:17:00.014Z,21.66
2023-01-15T23:19:28.276Z,21.64
2023-01-15T23:21:56.353Z,21.61
2023-01-15T23:24:24.143Z,21.59
2023-01-15T23:26:52.113Z,21.58
2023-01-15T23:29:19.995Z,21.54
2023-01-15T23:31:47.908Z,21.54
2023-01-15T23:34:15.665Z,21.51
2023-01-15T23:36:43.418Z,21.50
2023-01-15T23:39:11.107Z,21.49
2023-01-15T23:41:56.161Z,21.47
2023-01-15T23:44:41.344Z,21.46
2023-01-15T23:47:09.097Z,21.45
2023-01-15T23:49:36.815Z,21.44
2023-01-15T23:52:04.610Z,21.44
2023-01-15T23:54:32.339Z,21.44
2023-01-15T23:57:00.227Z,21.44
2023-01-15T23:59:27.927Z,21.43
